sensor_id;sensor_type;location;lat;lon;timestamp;pressure;altitude;pressure_sealevel;temperature;humidity
70254;BME280;57649;42.968;1.608;2024-02-26T00:00:14;95607.00;;;7.64;100.00
70254;BME280;57649;42.968;1.608;2024-02-26T00:02:41;95594.84;;;7.55;100.00
70254;BME280;57649;42.968;1.608;2024-02-26T00:05:07;95600.56;;;7.58;100.00
70254;BME280;57649;42.968;1.608;2024-02-26T00:07:33;95598.16;;;7.63;100.00
70254;BME280;57649;42.968;1.608;2024-02-26T00:09:59;95605.66;;;7.81;100.00
70254;BME280;57649;42.968;1.608;2024-02-26T00:12:24;95601.38;;;7.80;100.00
70254;BME280;57649;42.968;1.608;2024-02-26T00:14:50;95587.50;;;7.92;100.00
70254;BME280;57649;42.968;1.608;2024-02-26T00:17:15;95587.03;;;7.81;100.00
70254;BME280;57649;42.968;1.608;2024-02-26T00:19:41;95588.06;;;7.80;100.00
70254;BME280;57649;42.968;1.608;2024-02-26T00:22:07;95583.09;;;7.77;100.00
70254;BME280;57649;42.968;1.608;2024-02-26T00:24:32;95577.16;;;7.75;100.00
70254;BME280;57649;42.968;1.608;2024-02-26T00:26:59;95583.72;;;7.79;100.00
70254;BME280;57649;42.968;1.608;2024-02-26T00:29:24;95557.22;;;7.71;100.00
70254;BME280;57649;42.968;1.608;2024-02-26T00:31:51;95562.19;;;7.74;100.00
70254;BME280;57649;42.968;1.608;2024-02-26T00:34:16;95562.34;;;7.66;100.00
70254;BME280;57649;42.968;1.608;2024-02-26T00:36:42;95560.06;;;7.63;100.00
70254;BME280;57649;42.968;1.608;2024-02-26T00:39:07;95552.47;;;7.60;100.00
70254;BME280;57649;42.968;1.608;2024-02-26T00:41:33;95554.13;;;7.61;100.00
70254;BME280;57649;42.968;1.608;2024-02-26T00:43:58;95541.38;;;7.56;100.00
70254;BME280;57649;42.968;1.608;2024-02-26T00:46:23;95530.72;;;7.56;100.00
70254;BME280;57649;42.968;1.608;2024-02-26T00:48:49;95529.75;;;7.64;100.00
70254;BME280;57649;42.968;1.608;2024-02-26T00:51:14;95530.34;;;7.59;100.00
70254;BME280;57649;42.968;1.608;2024-02-26T00:53:40;95535.91;;;7.64;100.00
70254;BME280;57649;42.968;1.608;2024-02-26T00:56:05;95524.44;;;7.64;100.00
70254;BME280;57649;42.968;1.608;2024-02-26T00:58:31;95525.88;;;7.66;100.00
70254;BME280;57649;42.968;1.608;2024-02-26T01:00:58;95508.16;;;7.52;100.00
70254;BME280;57649;42.968;1.608;2024-02-26T01:03:23;95512.69;;;7.58;100.00
70254;BME280;57649;42.968;1.608;2024-02-26T01:05:48;95512.06;;;7.49;100.00
70254;BME280;57649;42.968;1.608;2024-02-26T01:08:14;95517.56;;;7.48;100.00
70254;BME280;57649;42.968;1.608;2024-02-26T01:10:39;95511.03;;;7.50;100.00
70254;BME280;57649;42.968;1.608;2024-02-26T01:13:05;95518.19;;;7.50;100.00
70254;BME280;57649;42.968;1.608;2024-02-26T01:15:30;95524.75;;;7.47;100.00
70254;BME280;57649;42.968;1.608;2024-02-26T01:17:55;95502.16;;;7.43;100.00
70254;BME280;57649;42.968;1.608;2024-02-26T01:20:21;95499.50;;;7.43;100.00
70254;BME280;57649;42.968;1.608;2024-02-26T01:22:46;95501.97;;;7.38;100.00
70254;BME280;57649;42.968;1.608;2024-02-26T01:25:12;95505.69;;;7.50;100.00
70254;BME280;57649;42.968;1.608;2024-02-26T01:27:38;95490.13;;;7.47;100.00
70254;BME280;57649;42.968;1.608;2024-02-26T01:30:06;95490.50;;;7.44;100.00
70254;BME280;57649;42.968;1.608;2024-02-26T01:32:32;95489.69;;;7.44;100.00
70254;BME280;57649;42.968;1.608;2024-02-26T01:34:57;95498.00;;;7.34;100.00
70254;BME280;57649;42.968;1.608;2024-02-26T01:37:23;95489.66;;;7.37;100.00
70254;BME280;57649;42.968;1.608;2024-02-26T01:39:49;95493.31;;;7.36;100.00
70254;BME280;57649;42.968;1.608;2024-02-26T01:42:14;95477.75;;;7.33;100.00
70254;BME280;57649;42.968;1.608;2024-02-26T01:44:39;95483.06;;;7.33;100.00
70254;BME280;57649;42.968;1.608;2024-02-26T01:47:11;95485.69;;;7.26;100.00
70254;BME280;57649;42.968;1.608;2024-02-26T01:49:37;95474.78;;;7.21;100.00
70254;BME280;57649;42.968;1.608;2024-02-26T01:52:04;95474.34;;;7.18;100.00
70254;BME280;57649;42.968;1.608;2024-02-26T01:54:31;95469.53;;;7.28;100.00
70254;BME280;57649;42.968;1.608;2024-02-26T01:56:57;95462.09;;;7.23;100.00
70254;BME280;57649;42.968;1.608;2024-02-26T01:59:23;95463.78;;;7.24;100.00
70254;BME280;57649;42.968;1.608;2024-02-26T02:01:55;95459.25;;;7.25;100.00
70254;BME280;57649;42.968;1.608;2024-02-26T02:04:21;95456.91;;;7.08;100.00
70254;BME280;57649;42.968;1.608;2024-02-26T02:06:48;95464.94;;;7.15;100.00
70254;BME280;57649;42.968;1.608;2024-02-26T02:09:14;95458.94;;;7.06;100.00
70254;BME280;57649;42.968;1.608;2024-02-26T02:11:39;95453.22;;;7.09;100.00
70254;BME280;57649;42.968;1.608;2024-02-26T02:14:05;95454.66;;;7.05;100.00
70254;BME280;57649;42.968;1.608;2024-02-26T02:16:31;95451.97;;;7.05;100.00
70254;BME280;57649;42.968;1.608;2024-02-26T02:18:58;95457.16;;;7.13;100.00
70254;BME280;57649;42.968;1.608;2024-02-26T02:21:23;95453.59;;;7.00;100.00
70254;BME280;57649;42.968;1.608;2024-02-26T02:23:48;95449.63;;;6.96;100.00
70254;BME280;57649;42.968;1.608;2024-02-26T02:26:15;95447.41;;;6.99;100.00
70254;BME280;57649;42.968;1.608;2024-02-26T02:28:41;95441.22;;;6.92;100.00
70254;BME280;57649;42.968;1.608;2024-02-26T02:31:07;95439.88;;;7.03;100.00
70254;BME280;57649;42.968;1.608;2024-02-26T02:33:34;95436.53;;;6.94;100.00
70254;BME280;57649;42.968;1.608;2024-02-26T02:35:59;95441.03;;;6.93;100.00
70254;BME280;57649;42.968;1.608;2024-02-26T02:38:25;95435.69;;;6.87;100.00
70254;BME280;57649;42.968;1.608;2024-02-26T02:40:51;95436.81;;;6.78;100.00
70254;BME280;57649;42.968;1.608;2024-02-26T02:43:17;95443.41;;;6.82;100.00
70254;BME280;57649;42.968;1.608;2024-02-26T02:45:42;95438.03;;;6.75;100.00
70254;BME280;57649;42.968;1.608;2024-02-26T02:48:08;95440.25;;;6.71;100.00
70254;BME280;57649;42.968;1.608;2024-02-26T02:50:33;95434.88;;;6.65;100.00
70254;BME280;57649;42.968;1.608;2024-02-26T02:52:59;95437.06;;;6.54;100.00
70254;BME280;57649;42.968;1.608;2024-02-26T02:55:25;95440.53;;;6.55;100.00
70254;BME280;57649;42.968;1.608;2024-02-26T02:57:50;95440.44;;;6.48;100.00
70254;BME280;57649;42.968;1.608;2024-02-26T03:00:16;95439.25;;;6.51;100.00
70254;BME280;57649;42.968;1.608;2024-02-26T03:02:42;95436.59;;;6.51;100.00
70254;BME280;57649;42.968;1.608;2024-02-26T03:05:08;95437.13;;;6.40;100.00
70254;BME280;57649;42.968;1.608;2024-02-26T03:07:33;95429.78;;;6.42;100.00
70254;BME280;57649;42.968;1.608;2024-02-26T03:09:59;95424.38;;;6.35;100.00
70254;BME280;57649;42.968;1.608;2024-02-26T03:12:24;95415.41;;;6.36;100.00
70254;BME280;57649;42.968;1.608;2024-02-26T03:14:50;95421.72;;;6.35;100.00
70254;BME280;57649;42.968;1.608;2024-02-26T03:17:16;95416.66;;;6.40;100.00
70254;BME280;57649;42.968;1.608;2024-02-26T03:19:44;95422.25;;;6.45;100.00
70254;BME280;57649;42.968;1.608;2024-02-26T03:22:11;95403.91;;;6.50;100.00
70254;BME280;57649;42.968;1.608;2024-02-26T03:24:37;95414.13;;;6.53;100.00
70254;BME280;57649;42.968;1.608;2024-02-26T03:27:02;95421.03;;;6.48;100.00
70254;BME280;57649;42.968;1.608;2024-02-26T03:29:28;95417.19;;;6.50;100.00
70254;BME280;57649;42.968;1.608;2024-02-26T03:31:53;95410.84;;;6.51;100.00
70254;BME280;57649;42.968;1.608;2024-02-26T03:34:18;95415.59;;;6.56;100.00
70254;BME280;57649;42.968;1.608;2024-02-26T03:36:45;95405.22;;;6.40;100.00
70254;BME280;57649;42.968;1.608;2024-02-26T03:39:11;95408.06;;;6.38;100.00
70254;BME280;57649;42.968;1.608;2024-02-26T03:41:36;95401.63;;;6.26;100.00
70254;BME280;57649;42.968;1.608;2024-02-26T03:44:02;95412.19;;;5.97;100.00
70254;BME280;57649;42.968;1.608;2024-02-26T03:46:28;95413.19;;;5.96;100.00
70254;BME280;57649;42.968;1.608;2024-02-26T03:48:53;95415.16;;;5.94;100.00
70254;BME280;57649;42.968;1.608;2024-02-26T03:51:19;95403.59;;;5.95;100.00
70254;BME280;57649;42.968;1.608;2024-02-26T03:53:44;95392.56;;;5.98;100.00
70254;BME280;57649;42.968;1.608;2024-02-26T03:56:11;95401.84;;;5.73;100.00
70254;BME280;57649;42.968;1.608;2024-02-26T03:58:37;95421.09;;;5.60;100.00
70254;BME280;57649;42.968;1.608;2024-02-26T04:01:02;95415.25;;;5.65;100.00
70254;BME280;57649;42.968;1.608;2024-02-26T04:03:30;95425.50;;;5.53;100.00
70254;BME280;57649;42.968;1.608;2024-02-26T04:05:55;95412.06;;;5.39;100.00
70254;BME280;57649;42.968;1.608;2024-02-26T04:08:21;95414.22;;;5.66;100.00
70254;BME280;57649;42.968;1.608;2024-02-26T04:10:46;95422.59;;;5.63;100.00
70254;BME280;57649;42.968;1.608;2024-02-26T04:13:12;95414.44;;;5.64;100.00
70254;BME280;57649;42.968;1.608;2024-02-26T04:15:37;95433.72;;;5.73;100.00
70254;BME280;57649;42.968;1.608;2024-02-26T04:18:02;95431.50;;;5.76;100.00
70254;BME280;57649;42.968;1.608;2024-02-26T04:20:28;95441.53;;;5.59;100.00
70254;BME280;57649;42.968;1.608;2024-02-26T04:22:53;95448.09;;;5.64;100.00
70254;BME280;57649;42.968;1.608;2024-02-26T04:25:19;95449.81;;;5.71;100.00
70254;BME280;57649;42.968;1.608;2024-02-26T04:27:44;95450.53;;;5.80;100.00
70254;BME280;57649;42.968;1.608;2024-02-26T04:30:10;95468.50;;;5.78;100.00
70254;BME280;57649;42.968;1.608;2024-02-26T04:32:35;95461.81;;;5.67;100.00
70254;BME280;57649;42.968;1.608;2024-02-26T04:35:02;95474.38;;;5.73;100.00
70254;BME280;57649;42.968;1.608;2024-02-26T04:37:27;95464.75;;;5.72;100.00
70254;BME280;57649;42.968;1.608;2024-02-26T04:39:59;95466.41;;;5.58;100.00
70254;BME280;57649;42.968;1.608;2024-02-26T04:42:25;95470.00;;;5.51;100.00
70254;BME280;57649;42.968;1.608;2024-02-26T04:44:50;95463.88;;;5.50;100.00
70254;BME280;57649;42.968;1.608;2024-02-26T04:47:15;95463.13;;;5.42;100.00
70254;BME280;57649;42.968;1.608;2024-02-26T04:49:41;95471.47;;;5.53;100.00
70254;BME280;57649;42.968;1.608;2024-02-26T04:52:06;95471.34;;;5.62;100.00
70254;BME280;57649;42.968;1.608;2024-02-26T04:54:31;95488.94;;;5.63;100.00
70254;BME280;57649;42.968;1.608;2024-02-26T04:56:57;95485.91;;;5.51;100.00
70254;BME280;57649;42.968;1.608;2024-02-26T04:59:22;95495.53;;;5.37;100.00
70254;BME280;57649;42.968;1.608;2024-02-26T05:01:48;95497.28;;;5.45;100.00
70254;BME280;57649;42.968;1.608;2024-02-26T05:04:13;95496.00;;;5.55;100.00
70254;BME280;57649;42.968;1.608;2024-02-26T05:06:38;95499.56;;;5.63;100.00
70254;BME280;57649;42.968;1.608;2024-02-26T05:09:04;95495.16;;;5.70;100.00
70254;BME280;57649;42.968;1.608;2024-02-26T05:11:31;95497.06;;;5.76;100.00
70254;BME280;57649;42.968;1.608;2024-02-26T05:13:57;95484.06;;;5.81;100.00
70254;BME280;57649;42.968;1.608;2024-02-26T05:16:22;95490.09;;;5.75;100.00
70254;BME280;57649;42.968;1.608;2024-02-26T05:18:50;95498.63;;;5.70;100.00
70254;BME280;57649;42.968;1.608;2024-02-26T05:21:15;95507.69;;;5.76;100.00
70254;BME280;57649;42.968;1.608;2024-02-26T05:23:40;95499.63;;;5.84;100.00
70254;BME280;57649;42.968;1.608;2024-02-26T05:26:09;95484.25;;;5.79;100.00
70254;BME280;57649;42.968;1.608;2024-02-26T05:28:34;95481.03;;;5.84;100.00
70254;BME280;57649;42.968;1.608;2024-02-26T05:31:00;95466.94;;;5.84;100.00
70254;BME280;57649;42.968;1.608;2024-02-26T05:33:25;95456.50;;;5.97;100.00
70254;BME280;57649;42.968;1.608;2024-02-26T05:35:51;95454.75;;;5.89;100.00
70254;BME280;57649;42.968;1.608;2024-02-26T05:38:16;95464.47;;;5.82;100.00
70254;BME280;57649;42.968;1.608;2024-02-26T05:40:41;95468.88;;;5.75;100.00
70254;BME280;57649;42.968;1.608;2024-02-26T05:43:07;95463.56;;;5.60;100.00
70254;BME280;57649;42.968;1.608;2024-02-26T05:45:32;95470.25;;;5.71;100.00
70254;BME280;57649;42.968;1.608;2024-02-26T05:47:58;95460.44;;;5.71;100.00
70254;BME280;57649;42.968;1.608;2024-02-26T05:50:23;95468.97;;;5.67;100.00
70254;BME280;57649;42.968;1.608;2024-02-26T05:52:49;95469.91;;;5.59;100.00
70254;BME280;57649;42.968;1.608;2024-02-26T05:55:14;95476.13;;;5.66;100.00
70254;BME280;57649;42.968;1.608;2024-02-26T05:57:41;95476.19;;;5.73;100.00
70254;BME280;57649;42.968;1.608;2024-02-26T06:00:07;95486.72;;;5.81;100.00
70254;BME280;57649;42.968;1.608;2024-02-26T06:02:32;95491.91;;;5.89;100.00
70254;BME280;57649;42.968;1.608;2024-02-26T06:04:58;95496.06;;;5.92;100.00
70254;BME280;57649;42.968;1.608;2024-02-26T06:07:23;95501.28;;;6.00;100.00
70254;BME280;57649;42.968;1.608;2024-02-26T06:09:49;95499.72;;;6.06;100.00
70254;BME280;57649;42.968;1.608;2024-02-26T06:12:14;95514.25;;;6.10;100.00
70254;BME280;57649;42.968;1.608;2024-02-26T06:14:40;95513.56;;;6.01;100.00
70254;BME280;57649;42.968;1.608;2024-02-26T06:17:05;95514.66;;;6.07;100.00
70254;BME280;57649;42.968;1.608;2024-02-26T06:19:32;95517.81;;;6.17;100.00
70254;BME280;57649;42.968;1.608;2024-02-26T06:21:57;95512.25;;;6.12;100.00
70254;BME280;57649;42.968;1.608;2024-02-26T06:24:23;95502.09;;;6.15;100.00
70254;BME280;57649;42.968;1.608;2024-02-26T06:26:48;95495.03;;;6.08;100.00
70254;BME280;57649;42.968;1.608;2024-02-26T06:29:14;95507.84;;;6.19;100.00
70254;BME280;57649;42.968;1.608;2024-02-26T06:31:40;95502.53;;;6.19;100.00
70254;BME280;57649;42.968;1.608;2024-02-26T06:34:05;95503.81;;;6.23;100.00
70254;BME280;57649;42.968;1.608;2024-02-26T06:36:31;95506.56;;;6.15;100.00
70254;BME280;57649;42.968;1.608;2024-02-26T06:38:57;95509.13;;;6.23;100.00
70254;BME280;57649;42.968;1.608;2024-02-26T06:41:23;95497.00;;;6.21;100.00
70254;BME280;57649;42.968;1.608;2024-02-26T06:43:55;95505.38;;;6.18;100.00
70254;BME280;57649;42.968;1.608;2024-02-26T06:46:22;95516.44;;;6.21;100.00
70254;BME280;57649;42.968;1.608;2024-02-26T06:48:50;95510.25;;;6.14;100.00
70254;BME280;57649;42.968;1.608;2024-02-26T06:51:16;95511.53;;;6.03;100.00
70254;BME280;57649;42.968;1.608;2024-02-26T06:53:41;95521.59;;;6.08;100.00
70254;BME280;57649;42.968;1.608;2024-02-26T06:56:06;95524.16;;;6.16;100.00
70254;BME280;57649;42.968;1.608;2024-02-26T06:58:32;95535.41;;;6.18;100.00
70254;BME280;57649;42.968;1.608;2024-02-26T07:00:58;95543.66;;;6.23;100.00
70254;BME280;57649;42.968;1.608;2024-02-26T07:03:24;95545.03;;;6.19;100.00
70254;BME280;57649;42.968;1.608;2024-02-26T07:05:50;95545.38;;;6.31;100.00
70254;BME280;57649;42.968;1.608;2024-02-26T07:08:16;95560.69;;;6.29;100.00
70254;BME280;57649;42.968;1.608;2024-02-26T07:10:41;95557.19;;;6.43;100.00
70254;BME280;57649;42.968;1.608;2024-02-26T07:13:08;95553.50;;;6.44;100.00
70254;BME280;57649;42.968;1.608;2024-02-26T07:15:34;95548.81;;;6.46;100.00
70254;BME280;57649;42.968;1.608;2024-02-26T07:17:59;95566.72;;;6.59;100.00
70254;BME280;57649;42.968;1.608;2024-02-26T07:20:31;95556.72;;;6.40;100.00
70254;BME280;57649;42.968;1.608;2024-02-26T07:22:57;95574.47;;;6.39;100.00
70254;BME280;57649;42.968;1.608;2024-02-26T07:25:23;95574.34;;;6.26;100.00
70254;BME280;57649;42.968;1.608;2024-02-26T07:27:49;95579.66;;;6.26;100.00
70254;BME280;57649;42.968;1.608;2024-02-26T07:30:15;95582.09;;;6.42;100.00
70254;BME280;57649;42.968;1.608;2024-02-26T07:32:42;95579.13;;;6.52;100.00
70254;BME280;57649;42.968;1.608;2024-02-26T07:35:07;95581.41;;;6.55;100.00
70254;BME280;57649;42.968;1.608;2024-02-26T07:37:33;95580.94;;;6.66;100.00
70254;BME280;57649;42.968;1.608;2024-02-26T07:39:58;95574.28;;;6.77;100.00
70254;BME280;57649;42.968;1.608;2024-02-26T07:42:24;95580.63;;;6.76;100.00
70254;BME280;57649;42.968;1.608;2024-02-26T07:44:50;95577.53;;;6.72;100.00
70254;BME280;57649;42.968;1.608;2024-02-26T07:47:16;95570.19;;;6.74;100.00
70254;BME280;57649;42.968;1.608;2024-02-26T07:49:41;95577.91;;;6.91;100.00
70254;BME280;57649;42.968;1.608;2024-02-26T07:52:06;95571.38;;;6.93;100.00
70254;BME280;57649;42.968;1.608;2024-02-26T07:54:32;95567.28;;;6.91;100.00
70254;BME280;57649;42.968;1.608;2024-02-26T07:56:57;95568.16;;;6.98;100.00
70254;BME280;57649;42.968;1.608;2024-02-26T07:59:26;95575.06;;;6.92;100.00
70254;BME280;57649;42.968;1.608;2024-02-26T08:01:51;95578.19;;;6.96;100.00
70254;BME280;57649;42.968;1.608;2024-02-26T08:04:17;95575.69;;;6.94;100.00
70254;BME280;57649;42.968;1.608;2024-02-26T08:06:42;95579.88;;;7.04;100.00
70254;BME280;57649;42.968;1.608;2024-02-26T08:09:08;95577.41;;;7.02;100.00
70254;BME280;57649;42.968;1.608;2024-02-26T08:11:34;95577.06;;;7.12;100.00
70254;BME280;57649;42.968;1.608;2024-02-26T08:14:00;95569.25;;;7.04;100.00
70254;BME280;57649;42.968;1.608;2024-02-26T08:16:25;95565.47;;;7.20;100.00
70254;BME280;57649;42.968;1.608;2024-02-26T08:18:50;95557.72;;;7.25;100.00
70254;BME280;57649;42.968;1.608;2024-02-26T08:21:16;95553.63;;;7.22;100.00
70254;BME280;57649;42.968;1.608;2024-02-26T08:23:43;95552.66;;;7.30;100.00
70254;BME280;57649;42.968;1.608;2024-02-26T08:26:08;95555.13;;;7.31;100.00
70254;BME280;57649;42.968;1.608;2024-02-26T08:28:36;95554.84;;;7.48;100.00
70254;BME280;57649;42.968;1.608;2024-02-26T08:31:02;95553.63;;;7.50;100.00
70254;BME280;57649;42.968;1.608;2024-02-26T08:33:27;95555.75;;;7.62;100.00
70254;BME280;57649;42.968;1.608;2024-02-26T08:35:53;95551.69;;;7.66;100.00
70254;BME280;57649;42.968;1.608;2024-02-26T08:38:19;95553.00;;;7.77;100.00
70254;BME280;57649;42.968;1.608;2024-02-26T08:40:44;95543.84;;;7.93;100.00
70254;BME280;57649;42.968;1.608;2024-02-26T08:43:10;95539.88;;;7.82;100.00
70254;BME280;57649;42.968;1.608;2024-02-26T08:45:35;95521.22;;;7.75;100.00
70254;BME280;57649;42.968;1.608;2024-02-26T08:48:00;95537.19;;;7.75;100.00
70254;BME280;57649;42.968;1.608;2024-02-26T08:50:26;95540.72;;;7.82;100.00
70254;BME280;57649;42.968;1.608;2024-02-26T08:52:52;95545.19;;;7.75;100.00
70254;BME280;57649;42.968;1.608;2024-02-26T08:55:18;95544.63;;;7.86;100.00
70254;BME280;57649;42.968;1.608;2024-02-26T08:57:44;95531.31;;;7.86;100.00
70254;BME280;57649;42.968;1.608;2024-02-26T09:00:10;95530.66;;;7.78;100.00
70254;BME280;57649;42.968;1.608;2024-02-26T09:02:36;95533.16;;;7.86;100.00
70254;BME280;57649;42.968;1.608;2024-02-26T09:05:04;95531.56;;;7.98;100.00
70254;BME280;57649;42.968;1.608;2024-02-26T09:07:30;95536.38;;;8.16;100.00
70254;BME280;57649;42.968;1.608;2024-02-26T09:09:56;95535.22;;;8.39;100.00
70254;BME280;57649;42.968;1.608;2024-02-26T09:12:22;95529.16;;;8.58;100.00
70254;BME280;57649;42.968;1.608;2024-02-26T09:14:47;95526.75;;;8.90;100.00
70254;BME280;57649;42.968;1.608;2024-02-26T09:17:12;95521.03;;;9.13;100.00
70254;BME280;57649;42.968;1.608;2024-02-26T09:19:38;95535.81;;;9.49;100.00
70254;BME280;57649;42.968;1.608;2024-02-26T09:22:03;95526.72;;;9.70;100.00
70254;BME280;57649;42.968;1.608;2024-02-26T09:24:29;95523.81;;;9.85;100.00
70254;BME280;57649;42.968;1.608;2024-02-26T09:26:55;95519.72;;;9.89;100.00
70254;BME280;57649;42.968;1.608;2024-02-26T09:29:20;95537.06;;;10.32;100.00
70254;BME280;57649;42.968;1.608;2024-02-26T09:31:46;95526.97;;;10.34;100.00
70254;BME280;57649;42.968;1.608;2024-02-26T09:34:13;95520.28;;;10.56;100.00
70254;BME280;57649;42.968;1.608;2024-02-26T09:36:39;95527.56;;;10.81;100.00
70254;BME280;57649;42.968;1.608;2024-02-26T09:39:04;95530.66;;;10.78;100.00
70254;BME280;57649;42.968;1.608;2024-02-26T09:41:30;95528.88;;;10.65;100.00
70254;BME280;57649;42.968;1.608;2024-02-26T09:43:57;95524.31;;;10.72;100.00
70254;BME280;57649;42.968;1.608;2024-02-26T09:46:25;95528.75;;;10.85;100.00
70254;BME280;57649;42.968;1.608;2024-02-26T09:48:51;95523.69;;;10.70;100.00
70254;BME280;57649;42.968;1.608;2024-02-26T09:51:17;95529.38;;;10.81;100.00
70254;BME280;57649;42.968;1.608;2024-02-26T09:53:44;95533.50;;;11.15;100.00
70254;BME280;57649;42.968;1.608;2024-02-26T09:56:14;95516.72;;;11.51;100.00
70254;BME280;57649;42.968;1.608;2024-02-26T09:58:41;95518.59;;;11.94;100.00
70254;BME280;57649;42.968;1.608;2024-02-26T10:01:11;95523.06;;;12.01;100.00
70254;BME280;57649;42.968;1.608;2024-02-26T10:03:39;95521.75;;;11.85;100.00
70254;BME280;57649;42.968;1.608;2024-02-26T10:06:07;95510.91;;;12.17;100.00
70254;BME280;57649;42.968;1.608;2024-02-26T10:08:35;95504.47;;;12.36;100.00
70254;BME280;57649;42.968;1.608;2024-02-26T10:11:00;95507.91;;;12.43;100.00
70254;BME280;57649;42.968;1.608;2024-02-26T10:13:26;95510.16;;;12.58;99.41
70254;BME280;57649;42.968;1.608;2024-02-26T10:15:52;95499.72;;;12.38;98.72
70254;BME280;57649;42.968;1.608;2024-02-26T10:18:17;95503.91;;;12.64;97.82
70254;BME280;57649;42.968;1.608;2024-02-26T10:21:01;95485.78;;;12.60;100.00
70254;BME280;57649;42.968;1.608;2024-02-26T10:23:29;95491.50;;;12.51;99.34
70254;BME280;57649;42.968;1.608;2024-02-26T10:25:55;95500.69;;;12.74;100.00
70254;BME280;57649;42.968;1.608;2024-02-26T10:28:20;95498.78;;;12.63;99.51
70254;BME280;57649;42.968;1.608;2024-02-26T10:30:46;95496.00;;;12.69;100.00
70254;BME280;57649;42.968;1.608;2024-02-26T10:33:12;95498.19;;;12.61;99.27
70254;BME280;57649;42.968;1.608;2024-02-26T10:35:38;95511.66;;;12.05;99.14
70254;BME280;57649;42.968;1.608;2024-02-26T10:38:07;95508.38;;;12.40;100.00
70254;BME280;57649;42.968;1.608;2024-02-26T10:40:32;95506.19;;;12.79;96.00
70254;BME280;57649;42.968;1.608;2024-02-26T10:43:00;95500.06;;;13.02;98.78
70254;BME280;57649;42.968;1.608;2024-02-26T10:45:27;95496.53;;;13.32;99.73
70254;BME280;57649;42.968;1.608;2024-02-26T10:47:53;95495.66;;;13.08;89.81
70254;BME280;57649;42.968;1.608;2024-02-26T10:50:19;95494.56;;;12.97;93.18
70254;BME280;57649;42.968;1.608;2024-02-26T10:52:45;95489.06;;;13.04;96.90
70254;BME280;57649;42.968;1.608;2024-02-26T10:55:15;95475.97;;;13.38;95.61
70254;BME280;57649;42.968;1.608;2024-02-26T10:57:44;95492.81;;;13.45;95.68
70254;BME280;57649;42.968;1.608;2024-02-26T11:00:14;95489.41;;;12.96;94.40
70254;BME280;57649;42.968;1.608;2024-02-26T11:02:40;95490.44;;;12.95;97.47
70254;BME280;57649;42.968;1.608;2024-02-26T11:05:06;95490.22;;;13.50;93.59
70254;BME280;57649;42.968;1.608;2024-02-26T11:07:34;95477.72;;;13.67;88.28
70254;BME280;57649;42.968;1.608;2024-02-26T11:10:01;95483.00;;;14.27;94.07
70254;BME280;57649;42.968;1.608;2024-02-26T11:12:28;95469.78;;;13.61;87.60
70254;BME280;57649;42.968;1.608;2024-02-26T11:14:55;95475.13;;;13.96;91.41
70254;BME280;57649;42.968;1.608;2024-02-26T11:17:22;95470.31;;;13.98;90.89
70254;BME280;57649;42.968;1.608;2024-02-26T11:19:53;95475.81;;;14.44;94.64
70254;BME280;57649;42.968;1.608;2024-02-26T11:22:20;95469.50;;;14.79;90.81
70254;BME280;57649;42.968;1.608;2024-02-26T11:24:48;95466.44;;;15.04;88.21
70254;BME280;57649;42.968;1.608;2024-02-26T11:27:16;95474.00;;;15.07;86.68
70254;BME280;57649;42.968;1.608;2024-02-26T11:29:51;95471.06;;;14.34;90.43
70254;BME280;57649;42.968;1.608;2024-02-26T11:32:17;95460.63;;;13.85;91.56
70254;BME280;57649;42.968;1.608;2024-02-26T11:34:43;95461.09;;;13.59;89.84
70254;BME280;57649;42.968;1.608;2024-02-26T11:37:11;95461.22;;;13.28;91.11
70254;BME280;57649;42.968;1.608;2024-02-26T11:39:37;95457.00;;;13.21;94.75
70254;BME280;57649;42.968;1.608;2024-02-26T11:42:14;95468.69;;;12.73;91.15
70254;BME280;57649;42.968;1.608;2024-02-26T11:44:39;95457.41;;;12.52;93.67
70254;BME280;57649;42.968;1.608;2024-02-26T11:47:14;95452.69;;;12.66;97.25
70254;BME280;57649;42.968;1.608;2024-02-26T11:49:43;95450.06;;;12.47;95.26
70254;BME280;57649;42.968;1.608;2024-02-26T11:52:09;95440.63;;;12.57;97.89
70254;BME280;57649;42.968;1.608;2024-02-26T11:57:30;95422.81;;;12.74;95.24
70254;BME280;57649;42.968;1.608;2024-02-26T12:00:10;95414.94;;;13.03;91.96
70254;BME280;57649;42.968;1.608;2024-02-26T12:02:46;95421.81;;;12.99;92.86
70254;BME280;57649;42.968;1.608;2024-02-26T12:05:16;95420.16;;;13.09;87.04
70254;BME280;57649;42.968;1.608;2024-02-26T12:07:47;95419.13;;;13.22;89.63
70254;BME280;57649;42.968;1.608;2024-02-26T12:10:35;95412.97;;;13.45;89.03
70254;BME280;57649;42.968;1.608;2024-02-26T12:13:17;95407.47;;;13.76;85.54
70254;BME280;57649;42.968;1.608;2024-02-26T12:18:18;95403.00;;;13.81;85.55
70254;BME280;57649;42.968;1.608;2024-02-26T12:20:43;95402.19;;;14.10;84.51
70254;BME280;57649;42.968;1.608;2024-02-26T12:23:14;95392.13;;;14.17;81.05
70254;BME280;57649;42.968;1.608;2024-02-26T12:25:40;95389.28;;;14.23;79.08
70254;BME280;57649;42.968;1.608;2024-02-26T12:28:06;95388.63;;;14.16;80.52
70254;BME280;57649;42.968;1.608;2024-02-26T12:30:34;95393.28;;;13.80;81.81
70254;BME280;57649;42.968;1.608;2024-02-26T12:33:00;95394.38;;;13.67;83.51
70254;BME280;57649;42.968;1.608;2024-02-26T12:35:27;95387.25;;;13.61;85.92
70254;BME280;57649;42.968;1.608;2024-02-26T12:37:53;95388.59;;;13.88;83.53
70254;BME280;57649;42.968;1.608;2024-02-26T12:40:20;95379.63;;;14.11;81.57
70254;BME280;57649;42.968;1.608;2024-02-26T12:42:46;95376.19;;;14.27;83.13
70254;BME280;57649;42.968;1.608;2024-02-26T12:45:12;95372.25;;;14.18;81.32
70254;BME280;57649;42.968;1.608;2024-02-26T12:47:39;95355.44;;;14.56;80.50
70254;BME280;57649;42.968;1.608;2024-02-26T12:50:05;95357.25;;;14.68;78.38
70254;BME280;57649;42.968;1.608;2024-02-26T12:52:35;95359.16;;;14.55;78.27
70254;BME280;57649;42.968;1.608;2024-02-26T12:55:04;95366.16;;;14.39;81.84
70254;BME280;57649;42.968;1.608;2024-02-26T12:57:31;95361.19;;;14.77;83.19
70254;BME280;57649;42.968;1.608;2024-02-26T12:59:59;95363.94;;;14.65;78.03